Terminal Aerodrome Forecast
Issued by NWS Chicago, IL

Home | Current Version | Previous Version | Text Only | Print | Product List | Glossary Off
Versions: 1 2 3 4 5 6 7 8 9 10 11 12 13 14 15 16 17 18 19 20 21 22 23 24 25 26 27 28 29 30 31 32 33 34 35 36 37 38 39

000
FTUS43 KLOT 212300
TAFRFD
TAF
KRFD 212338Z 2200/2224 18008KT P6SM SCT035 SCT050 OVC080
     FM220600 17004KT 4SM BR VCTS SCT007 BKN040CB BKN100
      TEMPO 2206/2210 2SM +TSRA BR SCT015 OVC040CB
     FM221100 15004KT 3SM BR SCT010 BKN030
     FM221600 24005KT P6SM SCT040 BKN100 PROB30 2220/2222 4SM TSRA
      OVC040CB=

USA.gov is the U.S. government's official web portal to all federal, state and local government web resources and services.